Time;durP1;ratioP1;P1;durP2;ratioP2;P2;SDS_P1;SDS_P2;PMS_P1;PMS_P2;Temp;Humidity;BMP_temperature;BMP_pressure;BME280_temperature;BME280_humidity;BME280_pressure;Samples;Min_cycle;Max_cycle;Signal;HPM_P1;HPM_P2
2020/12/13 03:00:15;;;;;;;35.63;16.42;;;4.90;99.90;;;;;;5042081;28;20438;-81
2020/12/13 03:03:02;;;;;;;38.50;18.05;;;4.90;99.90;;;;;;4984551;28;20050;-79
2020/12/13 03:05:28;;;;;;;44.40;18.20;;;4.90;99.90;;;;;;4988828;28;20057;-77
2020/12/13 03:07:53;;;;;;;40.47;18.13;;;4.90;99.90;;;;;;4991000;28;20047;-80
2020/12/13 03:10:19;;;;;;;43.30;17.73;;;4.90;99.90;;;;;;4989200;28;20042;-82
2020/12/13 03:12:45;;;;;;;48.63;19.73;;;4.90;99.90;;;;;;4989592;28;20050;-79
2020/12/13 03:15:11;;;;;;;49.35;18.17;;;4.90;99.90;;;;;;4989213;28;20141;-81
2020/12/13 03:17:36;;;;;;;53.90;21.40;;;4.90;99.90;;;;;;4989805;28;20042;-80
2020/12/13 03:20:03;;;;;;;60.55;22.80;;;4.90;99.90;;;;;;4997022;28;20033;-81
2020/12/13 03:34:43;;;;;;;81.18;26.40;;;4.90;99.90;;;;;;5019436;28;20052;-79
2020/12/13 03:37:29;;;;;;;83.72;26.67;;;4.90;99.90;;;;;;5023805;28;20132;-78
2020/12/13 03:39:54;;;;;;;97.55;27.60;;;4.80;99.90;;;;;;5013792;28;20124;-78
2020/12/13 03:42:41;;;;;;;81.18;29.08;;;4.80;99.90;;;;;;5029567;28;20045;-79
2020/12/13 03:45:27;;;;;;;105.00;31.98;;;4.80;99.90;;;;;;4990879;28;20049;-80
2020/12/13 03:47:53;;;;;;;98.43;29.75;;;4.80;99.90;;;;;;5031019;28;20041;-79
2020/12/13 03:50:19;;;;;;;95.88;33.88;;;4.80;99.90;;;;;;5015367;28;20042;-79
2020/12/13 03:52:44;;;;;;;86.47;28.40;;;4.80;99.90;;;;;;5024781;28;20042;-78
2020/12/13 03:55:10;;;;;;;86.55;29.40;;;4.80;99.90;;;;;;5023986;28;20231;-78
2020/12/13 03:57:36;;;;;;;90.43;28.85;;;4.80;99.90;;;;;;5035351;28;20113;-78
2020/12/13 04:00:21;;;;;;;84.13;28.80;;;4.80;99.90;;;;;;4982993;28;20516;-79
2020/12/13 04:02:48;;;;;;;;;;;4.80;99.90;;;;;;5032731;28;20042;-79
2020/12/13 04:05:13;;;;;;;90.90;29.20;;;4.80;99.90;;;;;;5032366;28;20334;-79
2020/12/13 04:07:39;;;;;;;82.88;31.33;;;4.80;99.90;;;;;;5017388;28;20040;-78
2020/12/13 04:10:05;;;;;;;92.85;29.80;;;4.80;99.90;;;;;;5032642;28;20041;-80
2020/12/13 04:12:30;;;;;;;84.15;27.73;;;4.80;99.90;;;;;;5026575;28;20124;-79
2020/12/13 04:14:56;;;;;;;73.07;25.48;;;4.80;99.90;;;;;;5014944;28;20048;-80
2020/12/13 04:17:43;;;;;;;66.00;23.65;;;4.70;99.90;;;;;;5004509;28;20057;-79
2020/12/13 04:20:08;;;;;;;73.18;26.00;;;4.70;99.90;;;;;;5031185;28;20037;-79
2020/12/13 04:22:34;;;;;;;59.15;24.75;;;4.70;99.90;;;;;;5032197;28;20413;-79
2020/12/13 04:25:00;;;;;;;63.45;25.63;;;4.70;99.90;;;;;;5014459;28;20041;-79
2020/12/13 04:27:46;;;;;;;63.22;24.52;;;4.70;99.90;;;;;;5016923;28;20053;-79
2020/12/13 04:30:32;;;;;;;64.28;25.50;;;4.70;99.90;;;;;;5031698;28;20049;-79
2020/12/13 04:33:18;;;;;;;68.20;22.77;;;4.90;99.90;;;;;;5017033;28;20072;-79
2020/12/13 04:36:06;;;;;;;56.30;23.10;;;4.70;99.90;;;;;;5029098;28;20111;-78
2020/12/13 04:38:32;;;;;;;58.17;23.52;;;4.70;99.90;;;;;;5032791;28;20144;-79
2020/12/13 04:41:18;;;;;;;55.80;23.10;;;4.70;99.90;;;;;;5030186;28;20049;-78
2020/12/13 04:43:44;;;;;;;60.47;22.48;;;4.70;99.90;;;;;;5034977;28;20043;-79
2020/12/13 04:46:10;;;;;;;50.38;21.45;;;4.70;99.90;;;;;;5017042;28;20041;-79
2020/12/13 04:48:36;;;;;;;;;;;4.60;99.90;;;;;;5035127;28;20433;-77
2020/12/13 04:51:03;;;;;;;41.00;20.15;;;4.60;99.90;;;;;;5050230;28;19916;-79
2020/12/13 04:53:29;;;;;;;58.55;22.77;;;4.50;99.90;;;;;;5046499;28;20056;-79
2020/12/13 04:55:57;;;;;;;54.20;22.02;;;4.40;99.90;;;;;;5034279;28;20041;-78
2020/12/13 04:58:25;;;;;;;48.45;21.13;;;4.30;99.90;;;;;;5052830;28;20101;-79
2020/12/13 05:01:11;;;;;;;52.65;21.90;;;4.30;99.90;;;;;;5035814;28;20074;-79
2020/12/13 05:03:38;;;;;;;45.97;20.40;;;4.20;99.90;;;;;;5019149;28;20041;-79
2020/12/13 05:06:04;;;;;;;48.42;21.45;;;4.10;99.90;;;;;;5033654;28;20051;-79
2020/12/13 05:08:30;;;;;;;51.13;20.77;;;4.00;99.90;;;;;;5019030;28;20033;-79
2020/12/13 05:10:57;;;;;;;45.63;20.65;;;3.90;99.90;;;;;;5033128;28;20482;-79
2020/12/13 05:13:23;;;;;;;51.45;21.00;;;3.80;99.90;;;;;;5025556;28;20033;-78
2020/12/13 05:15:49;;;;;;;44.70;20.50;;;3.80;99.90;;;;;;5050889;28;20116;-79
2020/12/13 05:18:15;;;;;;;53.97;23.90;;;3.70;99.90;;;;;;5044786;28;20124;-78
2020/12/13 05:20:43;;;;;;;53.97;21.13;;;3.60;99.90;;;;;;5050999;28;20041;-78
2020/12/13 05:23:31;;;;;;;59.30;23.70;;;3.50;99.90;;;;;;5023363;28;20052;-77
2020/12/13 05:26:20;;;;;;;54.13;22.38;;;3.40;99.90;;;;;;5036178;28;20523;-80
2020/12/13 05:28:48;;;;;;;78.28;30.25;;;3.40;99.90;;;;;;5050821;28;20120;-80
2020/12/13 05:31:20;;;;;;;102.80;35.13;;;3.30;99.90;;;;;;5029895;28;20041;-78
2020/12/13 05:36:28;;;;;;;111.15;38.60;;;3.50;99.90;;;;;;5037101;28;20425;-79
2020/12/13 05:38:58;;;;;;;113.18;38.28;;;3.50;99.90;;;;;;5032302;28;20065;-79
2020/12/13 05:41:29;;;;;;;121.35;38.78;;;3.60;99.90;;;;;;5045069;28;20041;-80
2020/12/13 05:47:23;;;;;;;140.35;41.33;;;3.70;99.90;;;;;;4995813;28;20050;-80
2020/12/13 05:53:18;;;;;;;161.55;36.08;;;3.50;99.90;;;;;;5029755;28;20135;-78
2020/12/13 05:56:04;;;;;;;133.90;36.25;;;3.50;99.90;;;;;;5021099;28;20052;-80
2020/12/13 05:58:51;;;;;;;90.18;31.85;;;3.50;99.90;;;;;;5026915;28;20052;-78
2020/12/13 06:01:22;;;;;;;146.23;37.47;;;3.50;99.90;;;;;;5032260;28;20032;-79
2020/12/13 06:03:51;;;;;;;135.35;32.95;;;3.50;99.90;;;;;;5049217;28;20124;-79
2020/12/13 06:06:25;;;;;;;155.55;38.33;;;3.50;99.90;;;;;;5030873;28;20123;-79
2020/12/13 06:09:14;;;;;;;165.38;35.90;;;3.50;99.90;;;;;;5034398;28;20107;-79
2020/12/13 06:11:46;;;;;;;105.15;27.80;;;3.40;99.90;;;;;;5049855;28;20036;-78
2020/12/13 06:14:20;;;;;;;161.82;37.50;;;3.40;99.90;;;;;;5049649;28;20072;-78
2020/12/13 06:16:47;;;;;;;118.65;33.15;;;3.40;99.90;;;;;;5049466;28;20117;-80
2020/12/13 06:19:20;;;;;;;156.15;35.88;;;3.30;99.90;;;;;;5048422;28;20040;-78
2020/12/13 06:21:47;;;;;;;115.90;31.63;;;3.30;99.90;;;;;;5041809;28;20048;-78
2020/12/13 06:24:13;;;;;;;128.80;33.85;;;3.30;99.90;;;;;;5014872;28;20127;-78
2020/12/13 06:26:39;;;;;;;125.60;30.20;;;3.20;99.90;;;;;;5043281;28;20041;-77
2020/12/13 06:29:06;;;;;;;;;;;3.20;99.90;;;;;;5049257;28;20035;-77
2020/12/13 06:31:53;;;;;;;106.28;30.48;;;3.20;99.90;;;;;;5032644;28;19916;-77
2020/12/13 06:34:44;;;;;;;114.63;31.67;;;3.20;99.90;;;;;;5034939;28;20401;-76
2020/12/13 06:37:11;;;;;;;93.13;30.30;;;3.20;99.90;;;;;;5041359;28;20059;-77
2020/12/13 06:39:56;;;;;;;;;;;3.20;99.90;;;;;;5033867;28;20037;-76
2020/12/13 06:42:27;;;;;;;168.63;35.78;;;3.20;99.90;;;;;;5039409;28;19940;-78
2020/12/13 06:45:25;;;;;;;133.55;36.53;;;3.20;99.90;;;;;;5015720;28;20401;-77
2020/12/13 06:48:11;;;;;;;135.63;37.13;;;3.20;99.90;;;;;;5007009;28;20402;-78
2020/12/13 06:50:37;;;;;;;153.95;41.25;;;3.20;99.90;;;;;;5042165;28;20117;-77
2020/12/13 06:53:03;;;;;;;;;;;3.20;99.90;;;;;;5050334;28;20060;-78
2020/12/13 06:55:33;;;;;;;157.50;38.38;;;3.30;99.90;;;;;;5049222;28;19991;-79
2020/12/13 06:58:03;;;;;;;255.50;44.22;;;3.30;99.90;;;;;;5051160;28;20041;-77
2020/12/13 07:00:49;;;;;;;124.85;34.95;;;3.30;99.90;;;;;;5053409;28;20045;-77
2020/12/13 07:03:35;;;;;;;150.75;36.33;;;3.30;99.90;;;;;;5027483;28;20065;-77
2020/12/13 07:06:05;;;;;;;172.65;37.25;;;3.30;99.90;;;;;;5037332;28;20052;-77
2020/12/13 07:08:33;;;;;;;88.85;28.30;;;3.20;99.90;;;;;;5041536;28;20041;-77
2020/12/13 07:11:00;;;;;;;158.80;36.88;;;3.20;99.90;;;;;;5050108;28;20066;-78
2020/12/13 07:13:29;;;;;;;201.18;44.72;;;3.20;99.90;;;;;;5054385;28;20443;-77
2020/12/13 07:16:38;;;;;;;159.95;37.97;;;3.20;99.90;;;;;;5037550;28;20041;-77
2020/12/13 07:19:24;;;;;;;;;;;3.20;99.90;;;;;;5014424;28;20052;-78
2020/12/13 07:22:14;;;;;;;115.57;30.40;;;3.20;99.90;;;;;;5036608;28;19925;-79
2020/12/13 07:24:41;;;;;;;150.18;40.50;;;3.20;99.90;;;;;;5052024;28;20112;-82
2020/12/13 07:27:27;;;;;;;158.15;37.50;;;3.20;99.90;;;;;;5046192;28;20045;-79
2020/12/13 07:29:56;;;;;;;154.40;37.63;;;3.30;99.90;;;;;;5028439;28;20049;-79
2020/12/13 07:32:23;;;;;;;115.70;34.45;;;3.30;99.90;;;;;;5034678;28;20033;-78
2020/12/13 07:34:49;;;;;;;143.05;39.03;;;3.70;99.90;;;;;;5054878;28;20036;-77
2020/12/13 07:37:17;;;;;;;190.75;42.97;;;3.40;99.90;;;;;;5028434;28;20041;-78
2020/12/13 07:39:42;;;;;;;95.60;29.42;;;3.30;99.90;;;;;;5053889;28;20060;-78
2020/12/13 07:42:09;;;;;;;194.20;45.17;;;3.30;99.90;;;;;;5033527;28;20325;-76
2020/12/13 07:44:35;;;;;;;228.00;48.17;;;3.30;99.90;;;;;;5045696;28;20120;-76
2020/12/13 07:47:01;;;;;;;139.07;37.83;;;3.30;99.90;;;;;;5032814;28;20077;-76
2020/12/13 07:49:46;;;;;;;160.23;38.33;;;3.40;99.90;;;;;;5020938;28;20403;-77
2020/12/13 07:52:13;;;;;;;147.27;38.88;;;3.30;99.90;;;;;;5041834;28;20056;-78
2020/12/13 07:54:39;;;;;;;124.15;35.42;;;3.30;99.90;;;;;;5051337;28;20122;-78
2020/12/13 07:57:16;;;;;;;130.95;37.03;;;3.30;99.90;;;;;;5034367;28;20033;-79
2020/12/13 07:59:42;;;;;;;123.35;33.45;;;3.40;99.90;;;;;;5033968;28;20164;-79
2020/12/13 08:02:11;;;;;;;121.90;34.92;;;3.40;99.90;;;;;;5051180;28;20033;-80
2020/12/13 08:04:43;;;;;;;108.65;33.58;;;3.40;99.90;;;;;;5043530;28;20093;-79
2020/12/13 08:07:11;;;;;;;124.45;37.25;;;3.40;99.90;;;;;;5040710;28;20047;-77
2020/12/13 08:09:38;;;;;;;104.63;29.73;;;3.30;99.90;;;;;;5038182;28;20033;-77
2020/12/13 08:12:33;;;;;;;81.90;28.70;;;3.40;99.90;;;;;;5034610;28;20040;-78
2020/12/13 08:14:59;;;;;;;141.88;37.88;;;3.40;99.90;;;;;;5051102;28;20045;-78
2020/12/13 08:17:25;;;;;;;173.18;39.88;;;3.40;99.90;;;;;;5043381;28;20483;-78
2020/12/13 08:19:59;;;;;;;133.13;36.17;;;3.40;99.90;;;;;;5015556;28;20041;-78
2020/12/13 08:22:28;;;;;;;141.98;36.92;;;3.40;99.90;;;;;;5037243;28;20041;-77
2020/12/13 08:24:55;;;;;;;103.22;31.58;;;3.50;99.90;;;;;;5051538;28;20040;-76
2020/12/13 08:27:21;;;;;;;92.55;31.13;;;3.50;99.90;;;;;;5050327;28;20048;-76
2020/12/13 08:29:48;;;;;;;79.38;29.35;;;3.60;99.90;;;;;;5033336;28;20362;-75
2020/12/13 08:32:14;;;;;;;;;;;3.60;99.90;;;;;;5050212;28;20033;-76
2020/12/13 08:34:40;;;;;;;103.03;31.70;;;3.60;99.90;;;;;;5052212;28;19928;-76
2020/12/13 08:37:08;;;;;;;103.43;32.08;;;3.60;99.90;;;;;;5028123;28;20045;-77
2020/12/13 08:39:36;;;;;;;150.02;39.03;;;3.70;99.90;;;;;;5044553;28;20044;-77
2020/12/13 08:42:04;;;;;;;85.63;27.65;;;3.70;99.90;;;;;;5033745;28;20475;-77
2020/12/13 08:44:36;;;;;;;76.72;24.98;;;3.70;99.90;;;;;;5050222;28;20120;-77
2020/12/13 08:47:09;;;;;;;54.45;22.98;;;3.70;99.90;;;;;;5031482;28;20033;-77
2020/12/13 08:49:40;;;;;;;69.20;27.40;;;3.80;99.90;;;;;;5048931;28;20051;-77
2020/12/13 08:52:22;;;;;;;50.67;23.27;;;3.80;99.90;;;;;;5048817;28;20505;-77
2020/12/13 08:55:08;;;;;;;47.42;22.02;;;3.80;99.90;;;;;;5025896;28;20041;-76
2020/12/13 08:57:45;;;;;;;43.30;19.00;;;3.80;99.90;;;;;;5047075;28;20037;-77
2020/12/13 09:00:13;;;;;;;40.88;18.08;;;3.90;99.90;;;;;;5041053;28;20084;-75
2020/12/13 09:02:39;;;;;;;32.55;16.63;;;3.90;99.90;;;;;;5033828;28;20140;-76
2020/12/13 09:05:07;;;;;;;40.63;18.65;;;3.90;99.90;;;;;;5031048;28;20454;-78
2020/12/13 09:07:56;;;;;;;32.42;16.50;;;3.90;99.90;;;;;;5020862;28;20053;-76
2020/12/13 09:10:23;;;;;;;36.17;18.55;;;4.00;99.90;;;;;;5033613;28;20048;-77
2020/12/13 09:12:49;;;;;;;35.92;18.35;;;4.00;99.90;;;;;;5038346;28;20073;-77
2020/12/13 09:15:35;;;;;;;33.38;18.00;;;4.00;99.90;;;;;;5025930;28;20045;-77
2020/12/13 09:18:20;;;;;;;37.55;17.77;;;4.10;99.90;;;;;;5019376;28;20047;-77
2020/12/13 09:20:56;;;;;;;30.90;16.33;;;4.10;99.90;;;;;;5026339;28;20064;-74
2020/12/13 09:23:21;;;;;;;31.10;17.02;;;4.20;99.90;;;;;;5016566;28;20055;-75
2020/12/13 09:25:51;;;;;;;44.55;20.10;;;4.20;99.90;;;;;;5045699;28;20041;-73
2020/12/13 09:28:17;;;;;;;25.48;14.93;;;4.30;99.90;;;;;;5032596;28;20048;-75
2020/12/13 09:30:43;;;;;;;28.80;16.27;;;4.30;99.90;;;;;;5035740;28;20037;-75
2020/12/13 09:33:10;;;;;;;33.95;17.77;;;4.30;99.90;;;;;;5038157;28;20033;-73
2020/12/13 09:35:36;;;;;;;32.17;17.83;;;4.30;99.90;;;;;;5036698;28;20052;-74
2020/12/13 09:38:05;;;;;;;28.15;16.08;;;4.40;99.90;;;;;;5045056;28;20526;-73
2020/12/13 09:40:32;;;;;;;32.53;16.23;;;4.40;99.90;;;;;;5047623;28;20052;-77
2020/12/13 09:42:59;;;;;;;31.55;16.15;;;4.40;99.90;;;;;;5030877;28;20037;-74
2020/12/13 09:45:25;;;;;;;33.13;17.52;;;4.50;99.90;;;;;;5026586;28;20037;-74
2020/12/13 09:47:57;;;;;;;28.67;16.77;;;4.50;99.90;;;;;;5042790;28;20108;-75
2020/12/13 09:50:28;;;;;;;36.38;19.30;;;4.50;99.90;;;;;;5043402;28;20076;-76
2020/12/13 09:53:13;;;;;;;33.38;17.17;;;4.60;99.90;;;;;;5019148;28;20041;-77
2020/12/13 09:55:39;;;;;;;30.95;16.67;;;4.60;99.90;;;;;;5031148;28;20497;-78
2020/12/13 09:58:05;;;;;;;27.67;14.85;;;4.70;99.90;;;;;;5049039;28;20479;-76
2020/12/13 10:00:30;;;;;;;24.50;15.00;;;4.70;99.90;;;;;;5035967;28;20044;-75
2020/12/13 10:02:56;;;;;;;23.35;14.32;;;4.80;99.90;;;;;;5044072;28;20406;-78
2020/12/13 10:05:34;;;;;;;31.27;17.10;;;4.80;99.90;;;;;;5048111;28;20094;-75
2020/12/13 10:11:05;;;;;;;28.95;14.80;;;5.00;99.90;;;;;;5047317;28;20029;-74
2020/12/13 10:13:30;;;;;;;28.63;15.48;;;5.10;99.90;;;;;;5047802;28;20028;-76
2020/12/13 10:15:57;;;;;;;34.65;16.75;;;5.20;99.90;;;;;;5048421;28;20475;-76
2020/12/13 10:18:23;;;;;;;28.40;16.20;;;5.20;99.90;;;;;;5056934;28;20048;-76
2020/12/13 10:20:49;;;;;;;29.55;16.02;;;5.20;99.90;;;;;;5030907;28;20041;-75
2020/12/13 10:23:34;;;;;;;29.35;15.20;;;5.30;99.90;;;;;;5018953;28;20044;-75
2020/12/13 10:26:25;;;;;;;29.75;16.08;;;5.30;99.90;;;;;;5017916;28;20129;-77
2020/12/13 10:28:52;;;;;;;28.50;15.30;;;5.30;99.90;;;;;;5043131;28;20045;-75
2020/12/13 10:31:46;;;;;;;31.85;17.52;;;5.30;99.90;;;;;;5028459;28;20037;-76
2020/12/13 10:34:18;;;;;;;31.98;17.17;;;5.30;99.90;;;;;;5047260;28;20060;-74
2020/12/13 10:36:44;;;;;;;33.03;17.90;;;5.40;99.90;;;;;;5051662;28;20053;-74
2020/12/13 10:39:30;;;;;;;37.63;19.90;;;5.60;99.90;;;;;;5030429;28;20048;-77
2020/12/13 10:41:56;;;;;;;31.88;18.70;;;5.50;99.90;;;;;;5031652;28;20283;-74
2020/12/13 10:44:41;;;;;;;31.15;18.50;;;5.60;99.90;;;;;;5039429;28;20056;-75
2020/12/13 10:47:07;;;;;;;31.30;19.20;;;5.60;99.90;;;;;;5046105;28;20033;-75
2020/12/13 10:49:33;;;;;;;34.88;20.55;;;5.60;99.90;;;;;;5029523;28;20483;-77
2020/12/13 10:51:58;;;;;;;32.42;18.33;;;5.70;99.90;;;;;;5051902;28;20436;-78
2020/12/13 10:54:24;;;;;;;35.28;18.92;;;5.70;99.90;;;;;;5046747;28;20033;-75
2020/12/13 10:56:50;;;;;;;30.73;16.95;;;5.80;99.90;;;;;;5052807;28;20098;-76
2020/12/13 10:59:16;;;;;;;33.22;19.35;;;5.90;99.90;;;;;;5048349;28;20043;-77
2020/12/13 11:01:46;;;;;;;39.28;22.95;;;5.90;99.90;;;;;;5016616;28;20071;-73
2020/12/13 11:04:12;;;;;;;35.03;20.27;;;6.00;99.90;;;;;;5048811;28;20574;-75
2020/12/13 11:06:38;;;;;;;34.30;18.70;;;6.00;99.90;;;;;;5029739;28;20493;-79
2020/12/13 11:09:05;;;;;;;30.80;17.42;;;6.10;99.90;;;;;;5047238;28;20364;-75
2020/12/13 11:11:51;;;;;;;29.15;15.90;;;6.10;99.90;;;;;;5027569;28;20417;-76
2020/12/13 11:14:16;;;;;;;28.80;17.25;;;6.10;99.90;;;;;;5042232;28;20029;-75
2020/12/13 11:17:02;;;;;;;32.90;17.83;;;6.10;99.90;;;;;;5047123;28;20152;-75
2020/12/13 11:19:48;;;;;;;31.50;17.58;;;6.10;99.90;;;;;;5027087;28;20124;-75
2020/12/13 11:22:14;;;;;;;35.08;18.13;;;6.10;99.90;;;;;;5044330;28;20457;-76
2020/12/13 11:24:39;;;;;;;30.85;17.00;;;6.10;99.90;;;;;;5029379;28;20092;-76
2020/12/13 11:27:07;;;;;;;37.45;20.65;;;6.10;99.90;;;;;;5019640;28;20379;-78
2020/12/13 11:29:34;;;;;;;32.85;18.55;;;6.10;99.90;;;;;;5033866;28;20068;-78
2020/12/13 11:32:00;;;;;;;35.72;19.88;;;6.20;99.90;;;;;;5033891;28;20040;-75
2020/12/13 11:34:26;;;;;;;36.40;20.05;;;6.10;99.90;;;;;;5035405;28;20041;-76
2020/12/13 11:37:12;;;;;;;33.17;18.67;;;6.10;99.90;;;;;;5028681;28;20441;-74
2020/12/13 11:39:37;;;;;;;36.40;20.15;;;6.20;99.90;;;;;;5044272;28;20033;-74
2020/12/13 11:42:04;;;;;;;42.22;23.13;;;6.20;99.90;;;;;;5034271;28;20120;-75
2020/12/13 11:44:30;;;;;;;37.83;20.70;;;6.20;99.90;;;;;;5048732;28;20078;-75
2020/12/13 11:46:56;;;;;;;38.40;21.60;;;6.30;99.90;;;;;;5035085;28;20379;-74
2020/12/13 11:49:24;;;;;;;45.15;24.30;;;6.30;99.90;;;;;;5055778;28;20534;-76
2020/12/13 11:52:10;;;;;;;39.20;20.80;;;6.30;99.90;;;;;;5028011;28;20041;-77
2020/12/13 11:54:36;;;;;;;46.90;22.70;;;6.30;99.90;;;;;;5039482;28;20129;-75
2020/12/13 11:57:21;;;;;;;50.58;24.00;;;6.30;99.90;;;;;;5035785;28;20497;-74
2020/12/13 11:59:48;;;;;;;40.58;21.40;;;6.40;99.90;;;;;;5052098;28;20033;-76
2020/12/13 12:02:14;;;;;;;50.25;24.45;;;6.40;99.90;;;;;;5034975;28;20112;-76
2020/12/13 12:04:40;;;;;;;;;;;6.50;99.90;;;;;;5050752;28;20041;-76
2020/12/13 12:07:05;;;;;;;42.17;22.40;;;6.50;99.90;;;;;;5053204;28;19920;-76
2020/12/13 12:09:32;;;;;;;53.25;25.85;;;6.50;99.90;;;;;;5044893;28;20491;-75
2020/12/13 12:12:17;;;;;;;54.67;27.52;;;6.60;99.90;;;;;;5022428;28;20048;-74
2020/12/13 12:14:43;;;;;;;53.63;26.13;;;6.70;99.90;;;;;;5050868;28;20044;-76
2020/12/13 12:17:29;;;;;;;58.30;27.80;;;6.60;99.90;;;;;;5044229;28;20098;-77
2020/12/13 12:20:18;;;;;;;52.03;25.55;;;6.70;99.90;;;;;;5030574;28;20123;-75
2020/12/13 12:22:47;;;;;;;51.30;23.77;;;6.70;99.90;;;;;;5050263;28;20394;-77
2020/12/13 12:25:35;;;;;;;54.30;24.58;;;6.70;99.90;;;;;;5050033;28;20063;-77
2020/12/13 12:28:21;;;;;;;50.30;23.40;;;6.70;99.90;;;;;;5042852;28;20052;-77
2020/12/13 12:30:47;;;;;;;62.22;26.88;;;6.70;99.90;;;;;;5051269;28;20040;-76
2020/12/13 12:33:12;;;;;;;63.97;27.17;;;6.70;99.90;;;;;;5034021;28;20040;-77
2020/12/13 12:35:38;;;;;;;54.30;24.83;;;6.70;99.90;;;;;;5049970;28;20064;-76
2020/12/13 12:38:04;;;;;;;55.15;25.80;;;6.70;99.90;;;;;;5050768;28;20367;-77
2020/12/13 12:40:30;;;;;;;52.65;25.48;;;6.80;99.90;;;;;;5043744;28;20323;-76
2020/12/13 12:43:15;;;;;;;58.85;27.13;;;6.90;99.90;;;;;;5017793;28;20071;-75
2020/12/13 12:45:41;;;;;;;52.58;24.27;;;6.90;99.90;;;;;;5042517;28;20041;-76
2020/12/13 12:48:27;;;;;;;52.65;23.98;;;6.90;99.90;;;;;;5035363;28;20458;-76
2020/12/13 12:50:52;;;;;;;54.45;23.48;;;6.90;99.90;;;;;;5051206;28;20060;-76
2020/12/13 12:53:38;;;;;;;48.92;23.77;;;6.90;99.90;;;;;;5033911;28;20044;-75
2020/12/13 12:56:06;;;;;;;46.67;22.85;;;7.00;99.90;;;;;;5033080;28;20051;-75
2020/12/13 13:01:48;;;;;;;47.92;22.33;;;7.10;99.90;;;;;;5038846;28;20048;-77
2020/12/13 13:04:20;;;;;;;45.63;20.90;;;7.10;99.90;;;;;;5035005;28;20633;-76
2020/12/13 13:06:56;;;;;;;48.58;21.95;;;7.10;99.90;;;;;;5036414;28;20056;-76
2020/12/13 13:09:31;;;;;;;46.45;22.77;;;7.10;99.90;;;;;;5030799;28;20052;-76
2020/12/13 13:11:58;;;;;;;;;;;7.10;99.90;;;;;;5050178;28;20557;-75
2020/12/13 13:14:24;;;;;;;39.95;21.73;;;7.20;99.90;;;;;;5033937;28;19921;-75
2020/12/13 13:16:59;;;;;;;42.67;20.70;;;7.20;99.90;;;;;;5042195;28;20060;-75
2020/12/13 13:19:25;;;;;;;41.92;20.48;;;7.20;99.90;;;;;;5038350;28;20037;-75
2020/12/13 13:21:50;;;;;;;42.85;20.23;;;7.20;99.90;;;;;;5044577;28;20056;-77
2020/12/13 13:24:16;;;;;;;40.45;22.20;;;7.20;99.90;;;;;;5038566;28;20045;-75
2020/12/13 13:26:42;;;;;;;43.92;22.88;;;7.20;99.90;;;;;;5036296;28;20038;-76
2020/12/13 13:29:08;;;;;;;42.17;21.38;;;7.20;99.90;;;;;;5024712;28;20143;-75
2020/12/13 13:31:55;;;;;;;42.53;22.25;;;7.30;99.90;;;;;;5019098;28;20084;-75
2020/12/13 13:34:41;;;;;;;;;;;7.30;99.90;;;;;;5035028;28;20144;-76
2020/12/13 13:37:06;;;;;;;44.83;21.05;;;7.20;99.90;;;;;;5049415;28;19979;-76
2020/12/13 13:39:52;;;;;;;48.85;22.20;;;7.30;99.90;;;;;;5018739;28;20106;-75
2020/12/13 13:42:18;;;;;;;48.95;22.90;;;7.30;99.90;;;;;;5048426;28;20041;-76
2020/12/13 13:44:56;;;;;;;46.63;21.55;;;7.30;99.90;;;;;;5048254;28;20090;-75
2020/12/13 13:47:31;;;;;;;42.15;20.63;;;7.30;99.90;;;;;;5018177;28;20041;-76
2020/12/13 13:50:01;;;;;;;43.10;20.58;;;7.30;99.90;;;;;;5049726;28;20091;-76
2020/12/13 13:52:28;;;;;;;36.42;18.75;;;7.40;99.90;;;;;;5049948;28;20382;-75
2020/12/13 13:55:00;;;;;;;36.65;19.13;;;7.40;99.90;;;;;;5031061;28;20029;-77
2020/12/13 13:57:29;;;;;;;37.72;18.30;;;7.40;99.90;;;;;;5050196;28;20116;-75
2020/12/13 14:00:15;;;;;;;31.13;17.02;;;7.40;99.90;;;;;;5031623;28;20051;-77
2020/12/13 14:03:00;;;;;;;33.20;16.35;;;7.50;99.90;;;;;;5021463;28;20036;-76
2020/12/13 14:05:27;;;;;;;36.08;16.20;;;7.50;99.90;;;;;;5038306;28;20090;-75
2020/12/13 14:08:07;;;;;;;29.05;14.93;;;7.60;99.90;;;;;;5042590;28;20033;-76
2020/12/13 14:10:53;;;;;;;29.48;15.20;;;7.80;99.90;;;;;;5017011;28;20053;-76
2020/12/13 14:13:19;;;;;;;30.90;15.27;;;8.10;99.90;;;;;;5033015;28;20041;-77
2020/12/13 14:15:45;;;;;;;29.73;15.30;;;8.10;99.90;;;;;;5049263;28;20037;-75
2020/12/13 14:18:31;;;;;;;27.20;14.60;;;8.00;99.90;;;;;;5029635;28;20049;-76
2020/12/13 14:21:17;;;;;;;26.13;14.15;;;7.90;99.90;;;;;;5024160;28;20055;-77
2020/12/13 14:23:43;;;;;;;29.73;15.77;;;7.90;99.90;;;;;;5015376;28;20041;-76
2020/12/13 14:26:10;;;;;;;29.42;13.80;;;7.70;99.90;;;;;;5029432;28;20053;-76
2020/12/13 14:28:36;;;;;;;27.05;14.45;;;7.60;99.90;;;;;;5045008;28;20441;-76
2020/12/13 14:31:02;;;;;;;24.58;14.93;;;7.50;99.90;;;;;;5050400;28;20037;-75
2020/12/13 14:33:47;;;;;;;36.03;16.33;;;7.30;99.90;;;;;;5020350;28;20474;-76
2020/12/13 14:36:21;;;;;;;27.08;16.00;;;7.20;99.90;;;;;;5042649;28;20142;-77
2020/12/13 14:38:48;;;;;;;32.03;15.85;;;7.10;99.90;;;;;;5048338;28;20041;-76
2020/12/13 14:41:14;;;;;;;29.35;15.73;;;7.00;99.90;;;;;;5048284;28;20037;-77
2020/12/13 14:43:41;;;;;;;35.30;17.73;;;6.90;99.90;;;;;;5054107;28;20501;-77
2020/12/13 14:46:08;;;;;;;30.00;16.33;;;6.80;99.90;;;;;;5032566;28;20033;-75
2020/12/13 14:48:54;;;;;;;32.65;17.23;;;6.80;99.90;;;;;;5013662;28;20483;-76
2020/12/13 14:51:19;;;;;;;32.92;17.30;;;6.60;99.90;;;;;;5029236;28;20548;-75
2020/12/13 14:54:05;;;;;;;36.17;17.90;;;6.50;99.90;;;;;;5028208;28;20453;-76
2020/12/13 14:56:31;;;;;;;33.97;18.17;;;6.50;99.90;;;;;;5049750;28;20037;-78
2020/12/13 14:58:57;;;;;;;32.65;19.08;;;6.30;99.90;;;;;;5048762;28;20110;-77
2020/12/13 15:01:43;;;;;;;43.03;19.50;;;6.30;99.90;;;;;;5032497;28;20041;-76
2020/12/13 15:04:28;;;;;;;36.17;18.00;;;6.20;99.90;;;;;;5018406;28;20531;-74
2020/12/13 15:06:57;;;;;;;38.10;18.27;;;6.10;99.90;;;;;;5027610;28;20037;-75
2020/12/13 15:09:43;;;;;;;39.05;19.33;;;6.00;99.90;;;;;;5025742;28;20052;-77
2020/12/13 15:12:09;;;;;;;39.30;19.23;;;5.90;99.90;;;;;;5037481;28;20448;-76
2020/12/13 15:17:47;;;;;;;42.20;20.33;;;5.70;99.90;;;;;;5030231;28;20093;-78
2020/12/13 15:20:13;;;;;;;;;;;5.60;99.90;;;;;;5033811;28;20403;-76
2020/12/13 15:22:39;;;;;;;47.67;23.15;;;5.50;99.90;;;;;;5048171;28;20010;-75
2020/12/13 15:25:05;;;;;;;44.47;21.13;;;5.40;99.90;;;;;;5039260;28;20041;-76
2020/12/13 15:27:51;;;;;;;41.90;21.83;;;5.40;99.90;;;;;;5036723;28;20145;-76
2020/12/13 15:30:36;;;;;;;54.13;23.45;;;5.30;99.90;;;;;;5026761;28;20040;-76
2020/12/13 15:33:04;;;;;;;53.17;23.83;;;5.20;99.90;;;;;;5047785;28;20377;-76
2020/12/13 15:35:49;;;;;;;42.35;21.70;;;5.10;99.90;;;;;;5024905;28;20195;-77
2020/12/13 15:38:15;;;;;;;44.65;22.48;;;5.00;99.90;;;;;;5046807;28;20517;-75
2020/12/13 15:41:01;;;;;;;48.58;23.38;;;5.00;99.90;;;;;;5026952;28;20436;-77
2020/12/13 15:43:27;;;;;;;54.08;25.20;;;4.90;99.90;;;;;;5049510;28;20036;-78
2020/12/13 15:45:53;;;;;;;55.13;25.77;;;4.90;99.90;;;;;;5047828;28;20123;-77
2020/12/13 15:48:19;;;;;;;48.08;22.88;;;4.80;99.90;;;;;;5038384;28;20116;-77
2020/12/13 15:50:45;;;;;;;41.40;21.60;;;4.80;99.90;;;;;;5047625;28;20041;-75
2020/12/13 15:53:17;;;;;;;53.33;24.67;;;4.80;99.90;;;;;;5045046;28;20037;-76
2020/12/13 15:56:03;;;;;;;51.55;24.02;;;4.80;99.90;;;;;;5020966;28;20499;-75
2020/12/13 15:58:49;;;;;;;46.80;24.70;;;4.70;99.90;;;;;;5025723;28;20049;-77
2020/12/13 16:01:14;;;;;;;46.15;23.88;;;4.60;99.90;;;;;;5038381;28;20112;-76
2020/12/13 16:03:40;;;;;;;50.03;24.38;;;4.60;99.90;;;;;;5042628;28;20516;-76
2020/12/13 16:06:06;;;;;;;52.50;24.75;;;4.50;99.90;;;;;;5051324;28;20351;-76
2020/12/13 16:08:33;;;;;;;51.10;25.65;;;4.50;99.90;;;;;;5033040;28;20115;-75
2020/12/13 16:10:59;;;;;;;56.95;26.08;;;4.40;99.90;;;;;;5017601;28;20397;-75
2020/12/13 16:13:25;;;;;;;61.97;28.83;;;4.40;99.90;;;;;;5038369;28;20038;-75
2020/12/13 16:15:51;;;;;;;60.53;26.65;;;4.30;99.90;;;;;;5038364;28;20045;-76
2020/12/13 16:18:17;;;;;;;67.70;28.90;;;4.30;99.90;;;;;;5031876;28;20042;-76
2020/12/13 16:21:03;;;;;;;54.67;27.60;;;4.30;99.90;;;;;;5029848;28;20055;-76
2020/12/13 16:23:29;;;;;;;69.85;30.67;;;4.30;99.90;;;;;;5050327;28;20056;-75
2020/12/13 16:25:55;;;;;;;65.80;29.95;;;4.20;99.90;;;;;;5047039;28;20071;-76
2020/12/13 16:28:22;;;;;;;68.22;28.98;;;4.20;99.90;;;;;;5045860;28;20048;-76
2020/12/13 16:30:51;;;;;;;71.55;30.33;;;4.20;99.90;;;;;;5047371;28;20433;-76
2020/12/13 16:33:17;;;;;;;68.97;31.63;;;4.20;99.90;;;;;;5018427;28;20044;-76